KSVE

Susanville Municipal Airport

Susanville, California, USA
METAR KSVE 141255Z AUTO 29003KT 10SM CLR M03/M05 A3014 RMK AO2
Observed Flight Rules
Dec-14 @ 12:55 UTC (22 minutes ago) Visual Flight Rules
Wind Visibility Clouds
290° at 3 knots 10 miles
  • Clear skies
Temperatures Readings
Current -3°C / 27°F
Dewpoint -5°C / 23°F
Humidity 86%
Altimeter 30.14" Hg
Pressure 1021 hPa
Elevation 1263
METAR KSVE 141255Z AUTO 29003KT 10SM CLR M03/M05 A3014 RMK AO2
Observed Flight Rules
Dec-14 @ 12:55 UTC
(22 minutes ago)
VFR
Wind Visibility
290° at 3 knots 10 miles
Clouds
  • Clear skies
Temperature Dewpoint
-3°C / 27°F -5°C / 23°F
Humidity Altimeter Pressure
86% 30.14" Hg 1021 hPa